createdAt,value
2019-03-20T00:01:47.260Z,99927.38
2019-03-20T00:06:15.395Z,99930.77
2019-03-20T00:08:26.204Z,99931.14
2019-03-20T00:10:36.993Z,99933.27
2019-03-20T00:12:47.805Z,99930.69
2019-03-20T00:14:58.596Z,99931.55
2019-03-20T00:17:09.420Z,99942.62
2019-03-20T00:19:20.237Z,99943.44
2019-03-20T00:21:31.142Z,99945.13
2019-03-20T00:23:41.950Z,99947.64
2019-03-20T00:25:52.746Z,99942.92
2019-03-20T00:28:03.573Z,99948.92
2019-03-20T00:30:56.016Z,99946.41
2019-03-20T00:33:06.982Z,99947.34
2019-03-20T00:35:17.771Z,99946.09
2019-03-20T00:37:28.672Z,99949.08
2019-03-20T00:39:39.493Z,99948.59
2019-03-20T00:41:50.292Z,99945.53
2019-03-20T00:44:01.127Z,99953.17
2019-03-20T00:46:11.913Z,99952.78
2019-03-20T00:48:22.751Z,99951.50
2019-03-20T00:50:33.583Z,99950.25
2019-03-20T00:52:44.383Z,99954.11
2019-03-20T00:54:55.210Z,99947.66
2019-03-20T00:57:06.008Z,99950.19
2019-03-20T00:59:16.863Z,99949.32
2019-03-20T01:01:27.790Z,99949.72
2019-03-20T01:03:38.570Z,99950.98
2019-03-20T01:05:49.408Z,99948.36
2019-03-20T01:08:00.249Z,99947.91
2019-03-20T01:10:52.739Z,99943.62
2019-03-20T01:13:45.171Z,99947.86
2019-03-20T01:15:55.985Z,99944.42
2019-03-20T01:20:39.165Z,99939.84
2019-03-20T01:22:50.104Z,99934.72
2019-03-20T01:25:00.969Z,99940.69
2019-03-20T01:27:11.780Z,99934.25
2019-03-20T01:29:22.604Z,99930.41
2019-03-20T01:31:33.425Z,99929.08
2019-03-20T01:33:44.243Z,99931.18
2019-03-20T01:35:55.045Z,99929.81
2019-03-20T01:38:47.516Z,99940.46
2019-03-20T01:40:58.322Z,99932.86
2019-03-20T01:43:09.164Z,99936.31
2019-03-20T01:45:19.966Z,99936.34
2019-03-20T01:47:30.797Z,99935.55
2019-03-20T01:49:41.598Z,99936.43
2019-03-20T01:51:52.462Z,99940.23
2019-03-20T01:54:03.272Z,99947.52
2019-03-20T01:56:14.062Z,99941.99
2019-03-20T01:58:24.909Z,99943.30
2019-03-20T02:00:36.011Z,99940.37
2019-03-20T02:02:46.828Z,99935.67
2019-03-20T02:04:57.641Z,99939.04
2019-03-20T02:07:08.447Z,99938.13
2019-03-20T02:09:19.357Z,99941.12
2019-03-20T02:11:30.166Z,99933.02
2019-03-20T02:13:41.004Z,99940.80
2019-03-20T02:15:51.798Z,99940.42
2019-03-20T02:18:02.724Z,99940.79
2019-03-20T02:20:55.156Z,99941.19
2019-03-20T02:23:05.992Z,99948.41
2019-03-20T02:25:16.800Z,99946.61
2019-03-20T02:27:27.649Z,99947.77
2019-03-20T02:29:38.502Z,99950.16
2019-03-20T02:31:49.309Z,99943.25
2019-03-20T02:34:00.155Z,99944.89
2019-03-20T02:36:10.953Z,99943.61
2019-03-20T02:38:21.768Z,99945.70
2019-03-20T02:40:32.577Z,99950.35
2019-03-20T02:42:43.387Z,99952.05
2019-03-20T02:44:54.227Z,99949.00
2019-03-20T02:47:05.015Z,99955.34
2019-03-20T02:49:15.821Z,99955.27
2019-03-20T02:51:26.653Z,99950.98
2019-03-20T02:53:37.470Z,99948.42
2019-03-20T02:55:48.267Z,99946.69
2019-03-20T02:57:59.072Z,99948.85
2019-03-20T03:00:29.796Z,99956.08
2019-03-20T03:02:40.635Z,99960.34
2019-03-20T03:04:51.452Z,99953.49
2019-03-20T03:07:02.359Z,99951.78
2019-03-20T03:09:13.192Z,99954.77
2019-03-20T03:11:23.991Z,99957.70
2019-03-20T03:13:34.800Z,99952.60
2019-03-20T03:15:45.644Z,99950.05
2019-03-20T03:17:56.450Z,99947.58
2019-03-20T03:20:48.929Z,99945.09
2019-03-20T03:22:59.742Z,99946.84
2019-03-20T03:25:52.297Z,99945.48
2019-03-20T03:28:03.164Z,99951.05
2019-03-20T03:30:55.647Z,99951.91
2019-03-20T03:33:06.585Z,99950.16
2019-03-20T03:35:19.436Z,99951.87
2019-03-20T03:37:30.062Z,99951.02
2019-03-20T03:39:40.874Z,99953.61
2019-03-20T03:41:51.695Z,99955.35
2019-03-20T03:44:02.628Z,99958.37
2019-03-20T03:46:13.478Z,99960.07
2019-03-20T03:48:24.287Z,99961.39
2019-03-20T03:50:35.106Z,99960.11
2019-03-20T03:52:45.921Z,99968.97
2019-03-20T03:55:16.587Z,99972.26
2019-03-20T03:57:27.470Z,99972.26
2019-03-20T03:59:38.285Z,99975.59
2019-03-20T04:01:49.103Z,99975.20
2019-03-20T04:03:59.891Z,99973.92
2019-03-20T04:06:10.710Z,99980.18
2019-03-20T04:08:21.493Z,99982.34
2019-03-20T04:10:32.333Z,99975.50
2019-03-20T04:12:43.148Z,99976.22
2019-03-20T04:14:53.968Z,99986.47
2019-03-20T04:17:46.431Z,99988.59
2019-03-20T04:19:57.215Z,99990.26
2019-03-20T04:22:08.016Z,99985.63
2019-03-20T04:24:18.825Z,99982.64
2019-03-20T04:26:49.517Z,99987.28
2019-03-20T04:29:00.329Z,99987.28
2019-03-20T04:31:11.136Z,99997.53
2019-03-20T04:33:22.009Z,99990.26
2019-03-20T04:35:32.815Z,99996.20
2019-03-20T04:37:43.628Z,100000.03
2019-03-20T04:39:54.457Z,99999.95
2019-03-20T04:42:05.252Z,100009.21
2019-03-20T04:44:16.084Z,100011.25
2019-03-20T04:46:26.901Z,100012.47
2019-03-20T04:48:37.785Z,100007.90
2019-03-20T04:50:48.561Z,100010.06
2019-03-20T04:52:59.479Z,100016.08
2019-03-20T04:55:51.915Z,100013.51
2019-03-20T04:58:02.848Z,100018.91
2019-03-20T05:00:33.503Z,100013.75
2019-03-20T05:02:44.318Z,100011.09
2019-03-20T05:04:55.142Z,100012.27
2019-03-20T05:07:05.925Z,100020.34
2019-03-20T05:09:16.769Z,100021.61
2019-03-20T05:11:27.556Z,100030.55
2019-03-20T05:13:38.384Z,100028.42
2019-03-20T05:15:49.331Z,100035.27
2019-03-20T05:18:00.161Z,100037.45
2019-03-20T05:20:30.816Z,100046.06
2019-03-20T05:22:41.629Z,100042.71
2019-03-20T05:24:52.463Z,100046.86
2019-03-20T05:27:03.267Z,100055.73
2019-03-20T05:29:14.099Z,100050.16
2019-03-20T05:31:24.915Z,100058.60
2019-03-20T05:33:35.732Z,100055.58
2019-03-20T05:35:46.554Z,100057.28
2019-03-20T05:38:17.225Z,100054.95
2019-03-20T05:40:28.054Z,100054.95
2019-03-20T05:42:38.871Z,100058.45
2019-03-20T05:44:49.663Z,100056.84
2019-03-20T05:47:00.485Z,100061.63
2019-03-20T05:49:11.283Z,100060.45
2019-03-20T05:51:22.107Z,100063.20
2019-03-20T05:53:32.940Z,100066.45
2019-03-20T05:55:43.823Z,100068.45
2019-03-20T05:57:54.722Z,100075.20
2019-03-20T06:02:44.288Z,100077.45
2019-03-20T06:04:55.105Z,100080.70
2019-03-20T06:07:05.891Z,100076.18
2019-03-20T06:09:16.708Z,100080.91
2019-03-20T06:11:27.546Z,100081.73
2019-03-20T06:13:38.357Z,100079.83
2019-03-20T06:15:49.161Z,100074.06
2019-03-20T06:17:59.993Z,100071.42
2019-03-20T06:20:52.466Z,100078.58
2019-03-20T06:23:03.265Z,100077.24
2019-03-20T06:25:55.734Z,100076.39
2019-03-20T06:28:06.554Z,100076.88
2019-03-20T06:30:59.015Z,100074.44
2019-03-20T06:33:09.852Z,100073.13
2019-03-20T06:35:20.666Z,100079.59
2019-03-20T06:37:32.788Z,100089.45
2019-03-20T06:39:44.222Z,100094.63
2019-03-20T06:41:55.029Z,100093.38
2019-03-20T06:44:05.838Z,100097.72
2019-03-20T06:46:16.698Z,100099.50
2019-03-20T06:48:27.511Z,100102.58
2019-03-20T06:50:38.303Z,100095.95
2019-03-20T06:52:49.169Z,100103.47
2019-03-20T06:55:01.159Z,100100.87
2019-03-20T06:57:12.695Z,100106.48
2019-03-20T07:00:05.531Z,100102.43
2019-03-20T07:05:34.805Z,100105.72
2019-03-20T07:07:45.837Z,100097.60
2019-03-20T07:10:38.272Z,100098.59
2019-03-20T07:12:49.114Z,100095.42
2019-03-20T07:14:59.920Z,100106.75
2019-03-20T07:17:10.839Z,100107.19
2019-03-20T07:19:21.661Z,100108.78
2019-03-20T07:21:32.471Z,100112.30
2019-03-20T07:23:43.302Z,100111.45
2019-03-20T07:25:54.121Z,100106.97
2019-03-20T07:28:04.917Z,100108.95
2019-03-20T07:30:15.751Z,100108.86
2019-03-20T07:32:26.567Z,100114.44
2019-03-20T07:34:37.425Z,100111.45
2019-03-20T07:36:48.246Z,100108.53
2019-03-20T07:38:59.078Z,100108.78
2019-03-20T07:41:09.875Z,100116.29
2019-03-20T07:43:20.673Z,100121.39
2019-03-20T07:45:31.498Z,100119.25
2019-03-20T07:47:42.300Z,100117.30
2019-03-20T07:49:53.108Z,100118.62
2019-03-20T07:52:04.061Z,100118.02
2019-03-20T07:54:14.843Z,100113.85
2019-03-20T07:56:25.659Z,100113.18
2019-03-20T07:58:36.480Z,100115.58
2019-03-20T08:00:47.305Z,100115.12
2019-03-20T08:02:58.123Z,100111.81
2019-03-20T08:05:50.603Z,100122.17
2019-03-20T08:08:07.229Z,100122.01
2019-03-20T08:10:55.764Z,100121.30
2019-03-20T08:13:06.577Z,100122.30
2019-03-20T08:15:17.391Z,100124.45
2019-03-20T08:17:28.206Z,100128.81
2019-03-20T08:19:39.054Z,100136.17
2019-03-20T08:21:49.986Z,100131.88
2019-03-20T08:24:00.896Z,100133.12
2019-03-20T08:26:11.752Z,100133.83
2019-03-20T08:28:22.558Z,100137.73
2019-03-20T08:30:33.378Z,100135.55
2019-03-20T08:32:44.300Z,100133.59
2019-03-20T08:34:55.210Z,100133.75
2019-03-20T08:37:06.062Z,100130.56
2019-03-20T08:39:16.940Z,100132.40
2019-03-20T08:41:27.756Z,100131.14
2019-03-20T08:43:38.559Z,100137.16
2019-03-20T08:45:49.364Z,100137.77
2019-03-20T08:48:00.206Z,100134.12
2019-03-20T08:50:52.650Z,100132.70
2019-03-20T08:53:03.560Z,100135.32
2019-03-20T08:55:56.002Z,100132.48
2019-03-20T08:58:06.835Z,100137.19
2019-03-20T09:00:59.299Z,100133.37
2019-03-20T09:03:10.140Z,100132.28
2019-03-20T09:05:21.042Z,100128.52
2019-03-20T09:07:31.830Z,100138.33
2019-03-20T09:09:42.649Z,100139.48
2019-03-20T09:11:53.453Z,100141.11
2019-03-20T09:14:04.283Z,100137.72
2019-03-20T09:16:15.094Z,100142.89
2019-03-20T09:18:25.927Z,100140.65
2019-03-20T09:20:36.733Z,100137.55
2019-03-20T09:22:47.556Z,100144.72
2019-03-20T09:24:58.365Z,100139.16
2019-03-20T09:27:09.172Z,100134.86
2019-03-20T09:29:19.999Z,100135.03
2019-03-20T09:31:30.830Z,100137.79
2019-03-20T09:33:41.750Z,100134.61
2019-03-20T09:35:52.622Z,100136.78
2019-03-20T09:38:03.434Z,100137.63
2019-03-20T09:40:34.116Z,100132.08
2019-03-20T09:42:44.920Z,100136.61
2019-03-20T09:45:16.233Z,100137.64
2019-03-20T09:47:27.034Z,100134.17
2019-03-20T09:49:37.867Z,100136.97
2019-03-20T09:51:48.654Z,100135.41
2019-03-20T09:53:59.492Z,100140.48
2019-03-20T09:56:10.364Z,100134.43
2019-03-20T09:58:21.271Z,100146.34
2019-03-20T10:00:32.093Z,100140.56
2019-03-20T10:03:24.519Z,100146.64
2019-03-20T10:05:35.337Z,100143.23
2019-03-20T10:07:46.355Z,100140.74
2019-03-20T10:09:57.187Z,100137.62
2019-03-20T10:12:08.045Z,100134.00
2019-03-20T10:14:18.846Z,100135.66
2019-03-20T10:16:29.640Z,100135.00
2019-03-20T10:18:40.453Z,100141.42
2019-03-20T10:20:51.294Z,100130.45
2019-03-20T10:23:02.201Z,100135.36
2019-03-20T10:25:54.647Z,100133.05
2019-03-20T10:28:05.460Z,100128.99
2019-03-20T10:30:36.145Z,100129.27
2019-03-20T10:32:47.073Z,100142.70
2019-03-20T10:34:57.927Z,100144.12
2019-03-20T10:37:08.854Z,100140.26
2019-03-20T10:39:19.629Z,100138.80
2019-03-20T10:41:30.455Z,100137.70
2019-03-20T10:43:41.258Z,100138.30
2019-03-20T10:45:52.137Z,100139.31
2019-03-20T10:48:03.097Z,100137.34
2019-03-20T10:50:33.785Z,100144.25
2019-03-20T10:52:44.621Z,100150.72
2019-03-20T10:54:55.620Z,100144.45
2019-03-20T10:57:06.429Z,100141.80
2019-03-20T10:59:17.261Z,100140.42
2019-03-20T11:01:28.099Z,100138.50
2019-03-20T11:03:38.929Z,100138.45
2019-03-20T11:05:49.782Z,100147.34
2019-03-20T11:08:00.593Z,100144.37
2019-03-20T11:10:31.266Z,100143.71
2019-03-20T11:12:42.110Z,100146.30
2019-03-20T11:14:52.889Z,100139.93
2019-03-20T11:17:11.275Z,100150.63
2019-03-20T11:22:18.942Z,100147.37
2019-03-20T11:24:27.134Z,100140.38
2019-03-20T11:26:37.942Z,100138.68
2019-03-20T11:28:48.788Z,100140.84
2019-03-20T11:30:59.613Z,100137.38
2019-03-20T11:33:10.449Z,100139.87
2019-03-20T11:35:21.365Z,100132.95
2019-03-20T11:37:32.203Z,100131.41
2019-03-20T11:39:43.123Z,100140.08
2019-03-20T11:41:53.964Z,100136.13
2019-03-20T11:44:04.872Z,100128.63
2019-03-20T11:46:15.685Z,100124.73
2019-03-20T11:48:26.508Z,100125.54
2019-03-20T11:51:18.949Z,100120.82
2019-03-20T11:53:29.770Z,100115.67
2019-03-20T11:55:40.568Z,100109.20
2019-03-20T11:57:51.376Z,100110.84
2019-03-20T12:00:43.858Z,100103.09
2019-03-20T12:02:54.704Z,100096.56
2019-03-20T12:05:47.185Z,100090.17
2019-03-20T12:07:58.120Z,100083.64
2019-03-20T12:10:50.572Z,100080.70
2019-03-20T12:13:01.411Z,100072.16
2019-03-20T12:15:53.813Z,100075.73
2019-03-20T12:18:04.799Z,100082.72
2019-03-20T12:20:57.288Z,100073.91
2019-03-20T12:23:08.207Z,100070.04
2019-03-20T12:25:39.104Z,100076.88
2019-03-20T12:27:49.901Z,100065.06
2019-03-20T12:30:00.782Z,100058.00
2019-03-20T12:32:11.644Z,100053.45
2019-03-20T12:34:22.513Z,100055.27
2019-03-20T12:36:33.341Z,100055.61
2019-03-20T12:38:44.172Z,100049.59
2019-03-20T12:40:54.966Z,100051.90
2019-03-20T12:43:05.888Z,100046.94
2019-03-20T12:45:58.363Z,100049.30
2019-03-20T12:48:50.876Z,100045.27
2019-03-20T12:51:01.693Z,100040.02
2019-03-20T12:53:33.438Z,100039.09
2019-03-20T12:55:44.266Z,100037.09
2019-03-20T12:57:55.087Z,100034.59
2019-03-20T13:00:27.455Z,100032.21
2019-03-20T13:02:38.891Z,100030.50
2019-03-20T13:04:49.688Z,100025.83
2019-03-20T13:07:00.532Z,100023.49
2019-03-20T13:09:11.341Z,100025.80
2019-03-20T13:11:22.216Z,100025.64
2019-03-20T13:13:33.025Z,100022.03
2019-03-20T13:15:43.834Z,100016.76
2019-03-20T13:18:36.336Z,100016.72
2019-03-20T13:20:47.186Z,100011.16
2019-03-20T13:23:39.618Z,100015.70
2019-03-20T13:25:50.437Z,100014.48
2019-03-20T13:28:01.237Z,100018.97
2019-03-20T13:30:53.718Z,100007.63
2019-03-20T13:33:04.528Z,100011.99
2019-03-20T13:35:15.381Z,100013.22
2019-03-20T13:37:26.213Z,100003.83
2019-03-20T13:39:37.012Z,100008.85
2019-03-20T13:41:47.845Z,100010.47
2019-03-20T13:43:58.647Z,100013.69
2019-03-20T13:46:09.481Z,100009.16
2019-03-20T13:48:20.285Z,100008.55
2019-03-20T13:50:31.102Z,100007.94
2019-03-20T13:52:42.044Z,100002.84
2019-03-20T13:54:52.841Z,99999.73
2019-03-20T13:57:03.882Z,99998.59
2019-03-20T13:59:14.690Z,100001.04
2019-03-20T14:01:25.500Z,100004.56
2019-03-20T14:03:36.325Z,99996.75
2019-03-20T14:05:47.158Z,100002.87
2019-03-20T14:07:58.014Z,99995.48
2019-03-20T14:10:50.912Z,99995.25
2019-03-20T14:13:01.794Z,99997.62
2019-03-20T14:15:54.241Z,99993.64
2019-03-20T14:18:05.079Z,99991.14
2019-03-20T14:20:57.524Z,99988.84
2019-03-20T14:23:08.380Z,99984.48
2019-03-20T14:26:00.831Z,99986.17
2019-03-20T14:28:11.655Z,99986.86
2019-03-20T14:30:42.329Z,99984.52
2019-03-20T14:32:53.241Z,99987.55
2019-03-20T14:35:45.746Z,99988.13
2019-03-20T14:37:56.567Z,99985.98
2019-03-20T14:40:49.010Z,99985.20
2019-03-20T14:42:59.985Z,99979.80
2019-03-20T14:45:52.513Z,99985.25
2019-03-20T14:48:03.310Z,99983.67
2019-03-20T14:50:55.768Z,99981.26
2019-03-20T14:53:06.686Z,99976.09
2019-03-20T14:55:17.496Z,99985.05
2019-03-20T14:57:28.334Z,99979.88
2019-03-20T14:59:39.145Z,99971.80
2019-03-20T15:01:49.949Z,99973.09
2019-03-20T15:04:00.877Z,99972.09
2019-03-20T15:06:11.692Z,99960.88
2019-03-20T15:08:22.610Z,99960.83
2019-03-20T15:10:33.464Z,99959.80
2019-03-20T15:12:44.467Z,99957.19
2019-03-20T15:14:55.291Z,99952.09
2019-03-20T15:17:06.111Z,99954.93
2019-03-20T15:19:16.914Z,99944.82
2019-03-20T15:24:06.917Z,99949.72
2019-03-20T15:26:17.728Z,99955.73
2019-03-20T15:28:28.539Z,99956.46
2019-03-20T15:30:39.482Z,99961.02
2019-03-20T15:32:50.298Z,99959.59
2019-03-20T15:35:01.245Z,99957.84
2019-03-20T15:37:12.061Z,99954.55
2019-03-20T15:39:22.891Z,99956.88
2019-03-20T15:41:33.856Z,99957.45
2019-03-20T15:43:44.669Z,99958.64
2019-03-20T15:45:55.498Z,99961.24
2019-03-20T15:48:06.302Z,99964.53
2019-03-20T15:50:37.013Z,99962.43
2019-03-20T15:52:47.936Z,99953.27
2019-03-20T15:54:58.725Z,99958.94
2019-03-20T15:57:09.543Z,99964.73
2019-03-20T15:59:20.472Z,99961.52
2019-03-20T16:01:31.304Z,99960.59
2019-03-20T16:04:23.776Z,99962.94
2019-03-20T16:06:34.622Z,99964.70
2019-03-20T16:08:45.418Z,99971.20
2019-03-20T16:11:05.959Z,99980.63
2019-03-20T16:13:08.953Z,99981.41
2019-03-20T16:16:01.422Z,99982.64
2019-03-20T16:18:12.311Z,99984.64
2019-03-20T16:20:23.083Z,99987.35
2019-03-20T16:22:33.920Z,99995.91
2019-03-20T16:24:44.722Z,100000.70
2019-03-20T16:26:55.554Z,100002.14
2019-03-20T16:29:06.504Z,100006.44
2019-03-20T16:31:17.325Z,100004.97
2019-03-20T16:33:28.179Z,99999.52
2019-03-20T16:35:39.006Z,99998.84
2019-03-20T16:37:49.839Z,100001.16
2019-03-20T16:40:00.657Z,100003.34
2019-03-20T16:42:11.450Z,100009.36
2019-03-20T16:44:22.295Z,99999.96
2019-03-20T16:46:33.119Z,100009.56
2019-03-20T16:49:25.655Z,100008.27
2019-03-20T16:51:36.459Z,100010.23
2019-03-20T16:53:47.269Z,100014.38
2019-03-20T16:55:58.095Z,100012.80
2019-03-20T16:58:09.009Z,100019.40
2019-03-20T17:01:01.483Z,100025.06
2019-03-20T17:03:12.293Z,100019.21
2019-03-20T17:06:04.982Z,100016.28
2019-03-20T17:08:15.795Z,100026.53
2019-03-20T17:10:46.476Z,100030.59
2019-03-20T17:13:38.925Z,100024.03
2019-03-20T17:15:49.761Z,100028.91
2019-03-20T17:18:00.588Z,100032.16
2019-03-20T17:20:53.094Z,100029.34
2019-03-20T17:23:45.552Z,100026.05
2019-03-20T17:25:56.389Z,100036.41
2019-03-20T17:28:07.431Z,100044.50
2019-03-20T17:30:58.012Z,100038.70
2019-03-20T17:33:08.824Z,100036.83
2019-03-20T17:35:19.767Z,100046.02
2019-03-20T17:37:50.493Z,100044.14
2019-03-20T17:40:01.303Z,100044.14
2019-03-20T17:44:28.951Z,100050.03
2019-03-20T17:46:39.855Z,100048.38
2019-03-20T17:48:50.657Z,100044.16
2019-03-20T17:51:01.608Z,100035.70
2019-03-20T17:53:12.752Z,100037.00
2019-03-20T17:55:23.939Z,100039.20
2019-03-20T17:57:34.770Z,100035.45
2019-03-20T17:59:45.629Z,100043.42
2019-03-20T18:01:56.467Z,100038.06
2019-03-20T18:04:07.281Z,100042.19
2019-03-20T18:06:18.082Z,100046.35
2019-03-20T18:08:28.902Z,100050.65
2019-03-20T18:10:39.740Z,100052.51
2019-03-20T18:12:50.623Z,100048.90
2019-03-20T18:15:43.086Z,100059.42
2019-03-20T18:17:53.889Z,100067.36
2019-03-20T18:20:24.564Z,100073.97
2019-03-20T18:22:35.378Z,100073.98
2019-03-20T18:24:46.168Z,100066.84
2019-03-20T18:26:57.027Z,100068.60
2019-03-20T18:29:07.828Z,100071.25
2019-03-20T18:31:18.646Z,100084.80
2019-03-20T18:33:29.505Z,100081.50
2019-03-20T18:35:40.355Z,100086.95
2019-03-20T18:37:51.322Z,100087.19
2019-03-20T18:40:43.783Z,100082.31
2019-03-20T18:45:55.294Z,100104.75
2019-03-20T18:48:06.125Z,100104.47
2019-03-20T18:50:58.564Z,100101.20
2019-03-20T18:53:09.445Z,100103.41
2019-03-20T18:55:20.352Z,100105.69
2019-03-20T18:57:31.180Z,100097.65
2019-03-20T18:59:42.024Z,100099.60
2019-03-20T19:01:52.911Z,100105.43
2019-03-20T19:04:03.865Z,100101.78
2019-03-20T19:06:34.578Z,100095.25
2019-03-20T19:08:45.456Z,100095.25
2019-03-20T19:10:56.325Z,100107.06
2019-03-20T19:13:07.231Z,100107.25
2019-03-20T19:15:18.140Z,100109.14
2019-03-20T19:17:29.001Z,100102.84
2019-03-20T19:19:39.838Z,100107.17
2019-03-20T19:21:50.681Z,100105.92
2019-03-20T19:24:01.527Z,100108.50
2019-03-20T19:26:12.345Z,100119.80
2019-03-20T19:28:23.164Z,100118.70
2019-03-20T19:30:34.105Z,100119.19
2019-03-20T19:32:45.052Z,100121.47
2019-03-20T19:34:55.960Z,100120.25
2019-03-20T19:37:06.774Z,100122.90
2019-03-20T19:39:17.611Z,100122.05
2019-03-20T19:41:28.429Z,100117.36
2019-03-20T19:43:39.305Z,100122.28
2019-03-20T19:45:50.224Z,100131.03
2019-03-20T19:48:01.050Z,100130.33
2019-03-20T19:50:31.756Z,100127.84
2019-03-20T19:52:42.687Z,100129.63
2019-03-20T19:54:53.553Z,100128.83
2019-03-20T19:57:04.355Z,100126.71
2019-03-20T19:59:35.718Z,100132.75
2019-03-20T20:01:58.329Z,100140.52
2019-03-20T20:03:59.300Z,100140.14
2019-03-20T20:06:11.342Z,100143.72
2019-03-20T20:08:22.875Z,100145.02
2019-03-20T20:10:36.516Z,100148.86
2019-03-20T20:12:47.443Z,100147.14
2019-03-20T20:14:58.244Z,100152.73
2019-03-20T20:17:09.072Z,100151.00
2019-03-20T20:19:19.918Z,100150.17
2019-03-20T20:21:30.796Z,100148.87
2019-03-20T20:23:41.605Z,100148.97
2019-03-20T20:25:52.601Z,100149.87
2019-03-20T20:28:03.592Z,100152.02
2019-03-20T20:30:56.059Z,100150.36
2019-03-20T20:33:06.853Z,100143.94
2019-03-20T20:35:17.694Z,100150.41
2019-03-20T20:37:28.581Z,100144.86
2019-03-20T20:39:39.388Z,100147.02
2019-03-20T20:41:50.216Z,100150.87
2019-03-20T20:44:01.024Z,100150.87
2019-03-20T20:46:11.868Z,100156.51
2019-03-20T20:48:22.672Z,100151.84
2019-03-20T20:50:33.474Z,100153.15
2019-03-20T20:53:25.934Z,100156.59
2019-03-20T20:55:36.736Z,100157.41
2019-03-20T20:58:07.447Z,100152.33
2019-03-20T21:00:38.131Z,100152.35
2019-03-20T21:05:07.745Z,100149.86
2019-03-20T21:07:18.575Z,100152.87
2019-03-20T21:09:29.383Z,100156.30
2019-03-20T21:11:40.233Z,100163.58
2019-03-20T21:13:51.058Z,100161.42
2019-03-20T21:16:02.115Z,100171.73
2019-03-20T21:18:54.603Z,100170.47
2019-03-20T21:21:05.521Z,100165.78
2019-03-20T21:23:57.972Z,100166.18
2019-03-20T21:26:48.508Z,100163.55
2019-03-20T21:29:39.066Z,100158.41
2019-03-20T21:32:31.566Z,100165.67
2019-03-20T21:35:24.047Z,100165.22
2019-03-20T21:38:14.593Z,100173.39
2019-03-20T21:40:25.414Z,100169.14
2019-03-20T21:43:15.960Z,100172.17
2019-03-20T21:46:06.523Z,100172.20
2019-03-20T21:51:29.425Z,100179.09
2019-03-20T21:54:19.992Z,100176.95
2019-03-20T21:57:10.545Z,100179.13
2019-03-20T22:00:03.014Z,100176.11
2019-03-20T22:02:53.573Z,100177.01
2019-03-20T22:05:44.198Z,100179.16
2019-03-20T22:07:55.011Z,100174.06
2019-03-20T22:10:47.481Z,100182.65
2019-03-20T22:13:39.928Z,100177.52
2019-03-20T22:16:30.501Z,100172.40
2019-03-20T22:19:22.941Z,100168.99
2019-03-20T22:22:15.411Z,100169.41
2019-03-20T22:25:06.045Z,100167.25
2019-03-20T22:30:15.744Z,100171.57
2019-03-20T22:33:08.188Z,100171.99
2019-03-20T22:36:00.701Z,100185.23
2019-03-20T22:38:53.316Z,100190.79
2019-03-20T22:41:43.890Z,100193.77
2019-03-20T22:44:36.332Z,100193.77
2019-03-20T22:47:28.785Z,100192.87
2019-03-20T22:50:21.215Z,100185.61
2019-03-20T22:53:11.783Z,100182.61
2019-03-20T22:56:04.319Z,100186.00
2019-03-20T22:58:56.719Z,100191.98
2019-03-20T23:01:49.178Z,100190.70
2019-03-20T23:04:41.619Z,100188.12
2019-03-20T23:06:52.445Z,100188.12
2019-03-20T23:09:44.889Z,100182.15
2019-03-20T23:12:37.344Z,100183.42
2019-03-20T23:14:48.146Z,100176.52
2019-03-20T23:16:58.942Z,100173.44
2019-03-20T23:19:09.786Z,100176.40
2019-03-20T23:21:20.596Z,100169.55
2019-03-20T23:24:13.059Z,100161.44
2019-03-20T23:26:23.877Z,100168.70
2019-03-20T23:28:34.723Z,100160.98
2019-03-20T23:30:45.531Z,100163.95
2019-03-20T23:32:56.373Z,100159.70
2019-03-20T23:35:07.297Z,100159.29
2019-03-20T23:37:18.096Z,100160.57
2019-03-20T23:39:28.913Z,100162.69
2019-03-20T23:41:39.719Z,100156.75
2019-03-20T23:43:53.323Z,100153.33
2019-03-20T23:46:25.017Z,100155.45
2019-03-20T23:49:17.493Z,100156.76
2019-03-20T23:52:09.933Z,100152.08
2019-03-20T23:55:02.396Z,100150.80
2019-03-20T23:57:54.836Z,100154.24
